Time;durP1;ratioP1;P1;durP2;ratioP2;P2;SDS_P1;SDS_P2;PMS_P1;PMS_P2;Temp;Humidity;BMP_temperature;BMP_pressure;BME280_temperature;BME280_humidity;BME280_pressure;Samples;Min_cycle;Max_cycle;Signal;HPM_P1;HPM_P2
2022/09/22 00:01:27;;;;;;;;;;;;;;;9.03;100.00;102433.59;5017674;28;19967;-42
2022/09/22 00:03:57;;;;;;;;;;;;;;;9.01;100.00;102438.19;5016480;28;20140;-43
2022/09/22 00:06:23;;;;;;;;;;;;;;;8.98;100.00;102435.75;5015945;28;19924;-42
2022/09/22 00:08:50;;;;;;;;;;;;;;;8.97;100.00;102437.56;5018987;28;19917;-43
2022/09/22 00:11:20;;;;;;;;;;;;;;;8.94;100.00;102432.47;5018032;28;20354;-42
2022/09/22 00:13:51;;;;;;;;;;;;;;;8.89;100.00;102430.16;5018800;28;19940;-42
2022/09/22 00:16:17;;;;;;;;;;;;;;;8.87;100.00;102434.72;5017254;28;19917;-44
2022/09/22 00:18:42;;;;;;;;;;;;;;;8.85;100.00;102433.97;5017810;28;19927;-42
2022/09/22 00:21:12;;;;;;;;;;;;;;;8.81;100.00;102426.31;5016591;28;20016;-43
2022/09/22 00:23:38;;;;;;;;;;;;;;;8.80;100.00;102427.28;5018661;28;20395;-44
2022/09/22 00:26:04;;;;;;;;;;;;;;;8.77;100.00;102425.69;5017843;28;19986;-41
2022/09/22 00:28:31;;;;;;;;;;;;;;;8.76;100.00;102426.66;5018554;28;19975;-42
2022/09/22 00:30:56;;;;;;;;;;;;;;;8.74;100.00;102428.56;5017421;28;19921;-44
2022/09/22 00:33:22;;;;;;;;;;;;;;;8.72;100.00;102425.16;5017219;28;19914;-43
2022/09/22 00:35:55;;;;;;;;;;;;;;;8.70;100.00;102422.59;5018036;28;19916;-42
2022/09/22 00:38:20;;;;;;;;;;;;;;;8.68;100.00;102429.88;5021781;28;20453;-44
2022/09/22 00:40:45;;;;;;;;;;;;;;;8.68;100.00;102421.03;5021457;28;19917;-42
2022/09/22 00:43:31;;;;;;;;;;;;;;;8.66;100.00;102421.13;5020985;28;19955;-42
2022/09/22 00:46:02;;;;;;;;;;;;;;;8.60;100.00;102418.91;5020111;28;19940;-42
2022/09/22 00:48:28;;;;;;;;;;;;;;;8.62;100.00;102424.13;5020988;28;19924;-42
2022/09/22 00:50:54;;;;;;;;;;;;;;;8.61;100.00;102425.94;5019367;28;19986;-42
2022/09/22 00:53:22;;;;;;;;;;;;;;;8.59;100.00;102419.88;5021949;28;19917;-42
2022/09/22 00:55:52;;;;;;;;;;;;;;;8.55;100.00;102416.59;5009347;28;20363;-41
2022/09/22 00:58:19;;;;;;;;;;;;;;;8.55;100.00;102411.25;5021710;28;19952;-43
2022/09/22 01:00:44;;;;;;;;;;;;;;;8.53;100.00;102410.50;5020934;28;19924;-44
2022/09/22 01:03:12;;;;;;;;;;;;;;;8.49;100.00;102411.69;5019568;28;20283;-42
2022/09/22 01:05:40;;;;;;;;;;;;;;;8.46;100.00;102400.41;5019902;28;20113;-44
2022/09/22 01:08:05;;;;;;;;;;;;;;;8.43;100.00;102397.97;5013503;28;20416;-43
2022/09/22 01:10:31;;;;;;;;;;;;;;;8.40;100.00;102396.31;5021605;28;20397;-45
2022/09/22 01:13:02;;;;;;;;;;;;;;;8.37;100.00;102402.72;5020967;28;20237;-43
2022/09/22 01:15:34;;;;;;;;;;;;;;;8.35;100.00;102395.78;5020645;28;20404;-42
2022/09/22 01:18:17;;;;;;;;;;;;;;;8.36;100.00;102390.34;5020496;28;20372;-42
2022/09/22 01:20:42;;;;;;;;;;;;;;;8.30;100.00;102385.50;5019722;28;20000;-42
2022/09/22 01:23:26;;;;;;;;;;;;;;;8.26;100.00;102386.66;5019173;28;20324;-44
2022/09/22 01:26:00;;;;;;;;;;;;;;;8.24;100.00;102393.06;5020150;28;19917;-40
2022/09/22 01:28:34;;;;;;;;;;;;;;;8.20;100.00;102387.94;5018823;28;19961;-42
2022/09/22 01:31:04;;;;;;;;;;;;;;;8.17;100.00;102381.97;5020128;28;19999;-41
2022/09/22 01:33:40;;;;;;;;;;;;;;;8.13;100.00;102377.81;5020504;28;19953;-43
2022/09/22 01:36:14;;;;;;;;;;;;;;;8.10;100.00;102378.91;5018267;28;19921;-41
2022/09/22 01:38:39;;;;;;;;;;;;;;;8.07;100.00;102379.09;5020939;28;20027;-43
2022/09/22 01:41:14;;;;;;;;;;;;;;;8.07;100.00;102379.09;5019184;28;20205;-43
2022/09/22 01:44:00;;;;;;;;;;;;;;;8.06;100.00;102377.38;5020947;28;20399;-43
2022/09/22 01:46:28;;;;;;;;;;;;;;;8.06;100.00;102376.53;5019471;28;19917;-43
2022/09/22 01:48:55;;;;;;;;;;;;;;;8.05;100.00;102375.72;5018762;28;19921;-46
2022/09/22 01:51:24;;;;;;;;;;;;;;;8.05;100.00;102367.72;5009962;28;19931;-43
2022/09/22 01:53:53;;;;;;;;;;;;;;;8.04;100.00;102371.31;5020090;28;19913;-46
2022/09/22 01:56:20;;;;;;;;;;;;;;;8.03;100.00;102365.16;5017581;28;19917;-42
2022/09/22 01:58:47;;;;;;;;;;;;;;;8.01;100.00;102360.91;5018890;28;19921;-42
2022/09/22 02:01:14;;;;;;;;;;;;;;;7.99;100.00;102354.84;5019717;28;19921;-42
2022/09/22 02:03:46;;;;;;;;;;;;;;;7.97;100.00;102354.09;5019631;28;19979;-41
2022/09/22 02:06:15;;;;;;;;;;;;;;;7.92;100.00;102354.41;5016089;28;19921;-42
2022/09/22 02:08:47;;;;;;;;;;;;;;;7.90;100.00;102351.00;5020197;28;20220;-44
2022/09/22 02:11:15;;;;;;;;;;;;;;;7.90;100.00;102356.34;5018818;28;20115;-42
2022/09/22 02:13:40;;;;;;;;;;;;;;;7.89;100.00;102357.31;5020281;28;19987;-41
2022/09/22 02:16:06;;;;;;;;;;;;;;;7.87;100.00;102351.22;5018795;28;19921;-42
2022/09/22 02:18:44;;;;;;;;;;;;;;;7.85;100.00;102355.81;5019705;28;19924;-43
2022/09/22 02:21:09;;;;;;;;;;;;;;;7.81;100.00;102349.00;5016888;28;20031;-42
2022/09/22 02:23:35;;;;;;;;;;;;;;;7.78;100.00;102347.38;5019864;28;20435;-43
2022/09/22 02:26:01;;;;;;;;;;;;;;;7.78;100.00;102341.22;5019808;28;20245;-42
2022/09/22 02:28:29;;;;;;;;;;;;;;;7.77;100.00;102336.84;5019859;28;19971;-44
2022/09/22 02:30:55;;;;;;;;;;;;;;;7.75;100.00;102330.78;5019009;28;19929;-44
2022/09/22 02:33:22;;;;;;;;;;;;;;;7.73;100.00;102335.38;5005263;28;19917;-41
2022/09/22 02:35:51;;;;;;;;;;;;;;;7.70;100.00;102330.25;5016615;28;20015;-43
2022/09/22 02:38:19;;;;;;;;;;;;;;;7.68;100.00;102335.69;5019051;28;20475;-41
2022/09/22 02:40:55;;;;;;;;;;;;;;;7.66;100.00;102334.94;5019288;28;20300;-42
2022/09/22 02:43:37;;;;;;;;;;;;;;;7.66;100.00;102326.97;5019675;28;19921;-42
2022/09/22 02:46:12;;;;;;;;;;;;;;;7.64;100.00;102320.91;5019248;28;19913;-42
2022/09/22 02:48:58;;;;;;;;;;;;;;;7.64;100.00;102320.91;5015196;28;19936;-43
2022/09/22 02:51:23;;;;;;;;;;;;;;;7.66;100.00;102321.66;5011839;28;19921;-43
2022/09/22 02:53:48;;;;;;;;;;;;;;;7.67;100.00;102315.34;5019427;28;20343;-42
2022/09/22 02:56:13;;;;;;;;;;;;;;;7.63;100.00;102317.38;5018575;28;19928;-43
2022/09/22 02:58:38;;;;;;;;;;;;;;;7.61;100.00;102323.78;5018566;28;19956;-44
2022/09/22 03:01:04;;;;;;;;;;;;;;;7.59;100.00;102310.59;5017515;28;20000;-45
2022/09/22 03:03:29;;;;;;;;;;;;;;;7.56;100.00;102316.09;5018549;28;19925;-43
2022/09/22 03:05:55;;;;;;;;;;;;;;;7.51;100.00;102314.72;5017346;28;19917;-42
2022/09/22 03:08:20;;;;;;;;;;;;;;;7.52;100.00;102308.44;5019159;28;19970;-42
2022/09/22 03:10:45;;;;;;;;;;;;;;;7.51;100.00;102317.38;5018808;28;19993;-43
2022/09/22 03:13:10;;;;;;;;;;;;;;;7.50;100.00;102321.00;5017604;28;19955;-41
2022/09/22 03:15:35;;;;;;;;;;;;;;;7.48;100.00;102307.78;5018669;28;19964;-41
2022/09/22 03:18:01;;;;;;;;;;;;;;;7.49;100.00;102309.50;5018552;28;20379;-41
2022/09/22 03:20:26;;;;;;;;;;;;;;;7.50;100.00;102315.66;5015466;28;19927;-40
2022/09/22 03:22:51;;;;;;;;;;;;;;;7.46;100.00;102309.72;5018852;28;20418;-43
2022/09/22 03:25:16;;;;;;;;;;;;;;;7.45;100.00;102310.66;5008748;28;19929;-44
2022/09/22 03:27:41;;;;;;;;;;;;;;;7.42;100.00;102309.06;5017086;28;19917;-43
2022/09/22 03:30:07;;;;;;;;;;;;;;;7.40;100.00;102303.03;5017980;28;20012;-41
2022/09/22 03:32:32;;;;;;;;;;;;;;;7.40;100.00;102307.47;5018053;28;19921;-43
2022/09/22 03:34:58;;;;;;;;;;;;;;;7.38;100.00;102302.28;5016170;28;20294;-42
2022/09/22 03:37:23;;;;;;;;;;;;;;;7.34;100.00;102300.78;5018816;28;19917;-42
2022/09/22 03:39:48;;;;;;;;;;;;;;;7.32;100.00;102297.38;5018999;28;20364;-41
2022/09/22 03:42:13;;;;;;;;;;;;;;;7.32;100.00;102301.84;5018579;28;19921;-40
2022/09/22 03:44:39;;;;;;;;;;;;;;;7.31;100.00;102298.31;5018452;28;19917;-43
2022/09/22 03:47:04;;;;;;;;;;;;;;;7.31;100.00;102300.97;5017687;28;19917;-42
2022/09/22 03:49:30;;;;;;;;;;;;;;;7.27;100.00;102300.34;5018124;28;19928;-43
2022/09/22 03:51:55;;;;;;;;;;;;;;;7.21;100.00;102298.09;5017054;28;19917;-42
2022/09/22 03:54:20;;;;;;;;;;;;;;;7.21;100.00;102297.22;5018453;28;19921;-43
2022/09/22 03:56:46;;;;;;;;;;;;;;;7.18;100.00;102295.66;5018575;28;20233;-41
2022/09/22 03:59:11;;;;;;;;;;;;;;;7.16;100.00;102294.91;5017769;28;20623;-43
2022/09/22 04:01:36;;;;;;;;;;;;;;;7.16;100.00;102291.38;5017565;28;20012;-42
2022/09/22 04:04:02;;;;;;;;;;;;;;;7.15;100.00;102295.00;5018146;28;19921;-42
2022/09/22 04:06:27;;;;;;;;;;;;;;;7.13;100.00;102294.22;5017587;28;19913;-42
2022/09/22 04:08:52;;;;;;;;;;;;;;;7.12;100.00;102295.22;5019170;28;19967;-41
2022/09/22 04:11:17;;;;;;;;;;;;;;;7.09;100.00;102291.81;5022195;28;19932;-44
2022/09/22 04:13:43;;;;;;;;;;;;;;;7.08;100.00;102286.59;5021503;28;20023;-42
2022/09/22 04:16:08;;;;;;;;;;;;;;;7.08;100.00;102282.13;5011045;28;20129;-41
2022/09/22 04:18:35;;;;;;;;;;;;;;;7.07;100.00;102283.06;5022182;28;19949;-44
2022/09/22 04:21:00;;;;;;;;;;;;;;;7.05;100.00;102279.66;5020286;28;20018;-41
2022/09/22 04:23:25;;;;;;;;;;;;;;;7.04;100.00;102277.13;5022390;28;19948;-40
2022/09/22 04:25:51;;;;;;;;;;;;;;;7.03;100.00;102276.28;5021577;28;20007;-41
2022/09/22 04:28:16;;;;;;;;;;;;;;;7.03;100.00;102272.78;5022256;28;20345;-41
2022/09/22 04:30:42;;;;;;;;;;;;;;;7.01;100.00;102277.31;5021888;28;19924;-41
2022/09/22 04:33:08;;;;;;;;;;;;;;;7.00;100.00;102281.78;5019572;28;19928;-41
2022/09/22 04:35:33;;;;;;;;;;;;;;;6.99;100.00;102279.22;5020008;28;19925;-41
2022/09/22 04:37:59;;;;;;;;;;;;;;;6.98;100.00;102277.53;5021296;28;19928;-40
2022/09/22 04:40:25;;;;;;;;;;;;;;;6.94;100.00;102276.03;5021553;28;19928;-42
2022/09/22 04:42:50;;;;;;;;;;;;;;;6.91;100.00;102274.44;5021108;28;19947;-42
2022/09/22 04:45:15;;;;;;;;;;;;;;;6.87;100.00;102279.09;5021050;28;19944;-41
2022/09/22 04:47:47;;;;;;;;;;;;;;;6.86;100.00;102280.03;5020950;28;19917;-40
2022/09/22 04:50:13;;;;;;;;;;;;;;;6.85;100.00;102269.53;5018944;28;20121;-41
2022/09/22 04:52:39;;;;;;;;;;;;;;;6.82;100.00;102275.91;5021312;28;20344;-42
2022/09/22 04:55:04;;;;;;;;;;;;;;;6.81;100.00;102278.66;5020341;28;19917;-42
2022/09/22 04:57:30;;;;;;;;;;;;;;;6.81;100.00;102276.84;5021501;28;20016;-42
2022/09/22 04:59:55;;;;;;;;;;;;;;;6.80;100.00;102266.31;5020559;28;19971;-42
2022/09/22 05:02:20;;;;;;;;;;;;;;;6.79;100.00;102273.44;5020481;28;20329;-42
2022/09/22 05:04:45;;;;;;;;;;;;;;;6.79;100.00;102278.75;5016557;28;19921;-42
2022/09/22 05:07:10;;;;;;;;;;;;;;;6.77;100.00;102280.66;5020596;28;19966;-41
2022/09/22 05:09:36;;;;;;;;;;;;;;;6.77;100.00;102282.44;5021148;28;20317;-45
2022/09/22 05:12:01;;;;;;;;;;;;;;;6.76;100.00;102276.28;5016573;28;19924;-44
2022/09/22 05:14:27;;;;;;;;;;;;;;;6.77;100.00;102279.78;5002236;28;19918;-41
2022/09/22 05:16:52;;;;;;;;;;;;;;;6.76;100.00;102286.91;5000482;28;19920;-42
2022/09/22 05:19:17;;;;;;;;;;;;;;;6.76;100.00;102284.25;5018315;28;20328;-40
2022/09/22 05:21:42;;;;;;;;;;;;;;;6.78;100.00;102289.47;5018986;28;19986;-41
2022/09/22 05:24:08;;;;;;;;;;;;;;;6.76;100.00;102278.94;5014848;28;20168;-43
2022/09/22 05:26:33;;;;;;;;;;;;;;;6.76;100.00;102278.13;5013115;28;19917;-41
2022/09/22 05:28:58;;;;;;;;;;;;;;;6.76;100.00;102286.06;5016157;28;19921;-41
2022/09/22 05:31:23;;;;;;;;;;;;;;;6.70;100.00;102280.22;5007810;28;19932;-42
2022/09/22 05:33:49;;;;;;;;;;;;;;;6.72;100.00;102286.28;5014058;28;19940;-43
2022/09/22 05:36:14;;;;;;;;;;;;;;;6.73;100.00;102285.31;5005091;28;20056;-41
2022/09/22 05:38:39;;;;;;;;;;;;;;;6.74;100.00;102286.19;5017919;28;20027;-43
2022/09/22 05:41:04;;;;;;;;;;;;;;;6.76;100.00;102291.38;5010497;28;20026;-40
2022/09/22 05:43:30;;;;;;;;;;;;;;;6.76;100.00;102281.59;5012294;28;20442;-40
2022/09/22 05:45:55;;;;;;;;;;;;;;;6.78;100.00;102290.31;5008769;28;19918;-40
2022/09/22 05:48:20;;;;;;;;;;;;;;;6.80;100.00;102290.22;5002851;28;20000;-43
2022/09/22 05:50:46;;;;;;;;;;;;;;;6.82;100.00;102290.97;5009792;28;19921;-42
2022/09/22 05:53:11;;;;;;;;;;;;;;;6.82;100.00;102288.31;5008995;28;19931;-41
2022/09/22 05:55:37;;;;;;;;;;;;;;;6.83;100.00;102290.88;5017211;28;20467;-42
2022/09/22 05:58:02;;;;;;;;;;;;;;;6.85;100.00;102290.78;5012705;28;19921;-41
2022/09/22 06:00:27;;;;;;;;;;;;;;;6.87;100.00;102294.16;5003017;28;19921;-41
2022/09/22 06:02:53;;;;;;;;;;;;;;;6.90;100.00;102300.13;4999652;28;20402;-44
2022/09/22 06:05:18;;;;;;;;;;;;;;;6.96;100.00;102295.34;4998414;28;19975;-41
2022/09/22 06:07:43;;;;;;;;;;;;;;;6.98;100.00;102296.13;5003488;28;19921;-42
2022/09/22 06:10:10;;;;;;;;;;;;;;;7.00;100.00;102294.22;5012681;28;19939;-44
2022/09/22 06:12:35;;;;;;;;;;;;;;;6.99;100.00;102301.34;5014275;28;19930;-41
2022/09/22 06:15:01;;;;;;;;;;;;;;;7.02;100.00;102301.13;5015584;28;20302;-40
2022/09/22 06:17:26;;;;;;;;;;;;;;;7.06;100.00;102294.66;5011369;28;19921;-42
2022/09/22 06:19:51;;;;;;;;;;;;;;;7.10;100.00;102298.81;5007270;28;19917;-40
2022/09/22 06:22:17;;;;;;;;;;;;;;;7.15;100.00;102295.00;5008746;28;19917;-41
2022/09/22 06:24:42;;;;;;;;;;;;;;;7.20;100.00;102288.41;5004638;28;19930;-42
2022/09/22 06:27:07;;;;;;;;;;;;;;;7.25;100.00;102301.41;5012175;28;19917;-46
2022/09/22 06:29:32;;;;;;;;;;;;;;;7.28;100.00;102290.53;5013188;28;19940;-41
2022/09/22 06:31:58;;;;;;;;;;;;;;;7.33;100.00;102293.78;5005818;28;20351;-41
2022/09/22 06:34:24;;;;;;;;;;;;;;;7.38;100.00;102294.31;4998059;28;20368;-41
2022/09/22 06:36:50;;;;;;;;;;;;;;;7.44;100.00;102296.53;5008306;28;19917;-41
2022/09/22 06:39:15;;;;;;;;;;;;;;;7.49;100.00;102287.41;5018903;28;19959;-41
2022/09/22 06:41:40;;;;;;;;;;;;;;;7.55;100.00;102293.16;5019021;28;19920;-40
2022/09/22 06:44:06;;;;;;;;;;;;;;;7.62;100.00;102285.56;5015972;28;19923;-40
2022/09/22 06:46:32;;;;;;;;;;;;;;;7.70;100.00;102285.91;5016633;28;20391;-41
2022/09/22 06:48:58;;;;;;;;;;;;;;;7.76;100.00;102284.63;5017082;28;19921;-40
2022/09/22 06:51:25;;;;;;;;;;;;;;;7.80;100.00;102288.78;5004544;28;19917;-41
2022/09/22 06:53:51;;;;;;;;;;;;;;;7.90;100.00;102299.63;4999552;28;19918;-42
2022/09/22 06:56:18;;;;;;;;;;;;;;;7.96;100.00;102288.53;4999136;28;19984;-41
2022/09/22 06:58:44;;;;;;;;;;;;;;;8.02;100.00;102290.78;4999671;28;20424;-40
2022/09/22 07:01:09;;;;;;;;;;;;;;;8.11;100.00;102290.13;4997341;28;20320;-41
2022/09/22 07:03:37;;;;;;;;;;;;;;;8.22;100.00;102292.84;4998784;28;19929;-41
2022/09/22 07:06:02;;;;;;;;;;;;;;;8.33;100.00;102292.09;5003982;28;19917;-41
2022/09/22 07:08:32;;;;;;;;;;;;;;;8.45;100.00;102287.72;5017689;28;20256;-42
2022/09/22 07:11:00;;;;;;;;;;;;;;;8.59;100.00;102284.91;5013851;28;19918;-42
2022/09/22 07:13:29;;;;;;;;;;;;;;;8.75;100.00;102289.09;5017991;28;20001;-40
2022/09/22 07:16:00;;;;;;;;;;;;;;;8.88;100.00;102292.56;5011178;28;20637;-41
2022/09/22 07:18:26;;;;;;;;;;;;;;;9.05;100.00;102290.44;4999391;28;20305;-40
2022/09/22 07:20:51;;;;;;;;;;;;;;;9.21;100.00;102290.97;4996992;28;19913;-40
2022/09/22 07:23:17;;;;;;;;;;;;;;;9.37;100.00;102290.66;4999153;28;19936;-41
2022/09/22 07:25:43;;;;;;;;;;;;;;;9.55;100.00;102291.06;4998752;28;19913;-41
2022/09/22 07:28:11;;;;;;;;;;;;;;;9.73;100.00;102288.78;4998341;28;19914;-40
2022/09/22 07:30:39;;;;;;;;;;;;;;;9.89;100.00;102291.09;4997171;28;19924;-42
2022/09/22 07:33:04;;;;;;;;;;;;;;;10.06;100.00;102284.41;4997919;28;19921;-39
2022/09/22 07:35:30;;;;;;;;;;;;;;;10.19;100.00;102285.13;4997767;28;20493;-40
2022/09/22 07:37:58;;;;;;;;;;;;;;;10.32;100.00;102278.81;5012892;28;19920;-40
2022/09/22 07:40:23;;;;;;;;;;;;;;;10.47;100.00;102285.59;5017961;28;19920;-41
2022/09/22 07:42:48;;;;;;;;;;;;;;;10.65;100.00;102280.56;5019164;28;19913;-42
2022/09/22 07:45:14;;;;;;;;;;;;;;;10.84;100.00;102285.25;5020750;28;20355;-40
2022/09/22 07:50:26;;;;;;;;;;;;;;;11.13;100.00;102281.94;5019240;28;20218;-41
2022/09/22 07:52:51;;;;;;;;;;;;;;;11.17;100.00;102278.06;5021284;28;19972;-41
2022/09/22 07:55:17;;;;;;;;;;;;;;;11.22;100.00;102283.88;5020239;28;19988;-40
2022/09/22 07:57:42;;;;;;;;;;;;;;;11.39;100.00;102285.94;5022026;28;19920;-39
2022/09/22 08:00:07;;;;;;;;;;;;;;;11.58;100.00;102282.53;5021533;28;19913;-41
2022/09/22 08:02:33;;;;;;;;;;;;;;;11.78;100.00;102277.28;5021785;28;19917;-41
2022/09/22 08:05:02;;;;;;;;;;;;;;;11.98;100.00;102280.91;5021120;28;19917;-41
2022/09/22 08:07:30;;;;;;;;;;;;;;;12.14;100.00;102280.41;5022052;28;20285;-43
2022/09/22 08:09:55;;;;;;;;;;;;;;;12.30;100.00;102270.03;5021027;28;20338;-43
2022/09/22 08:12:20;;;;;;;;;;;;;;;12.41;100.00;102271.75;5022421;28;19917;-42
2022/09/22 08:14:46;;;;;;;;;;;;;;;12.44;100.00;102279.53;5021850;28;20349;-41
2022/09/22 08:17:11;;;;;;;;;;;;;;;12.52;100.00;102269.94;5020404;28;19971;-40
2022/09/22 08:19:37;;;;;;;;;;;;;;;12.62;100.00;102270.78;5020943;28;19948;-40
2022/09/22 08:22:02;;;;;;;;;;;;;;;12.71;100.00;102271.78;5022167;28;20194;-41
2022/09/22 08:24:27;;;;;;;;;;;;;;;12.80;100.00;102265.59;5020931;28;20339;-41
2022/09/22 08:26:54;;;;;;;;;;;;;;;12.91;99.27;102268.13;5021072;28;19928;-39
2022/09/22 08:29:20;;;;;;;;;;;;;;;12.95;100.00;102266.84;5020947;28;19960;-41
2022/09/22 08:31:46;;;;;;;;;;;;;;;13.04;100.00;102260.63;5021220;28;19967;-41
2022/09/22 08:34:15;;;;;;;;;;;;;;;13.18;100.00;102272.75;5019482;28;19928;-42
2022/09/22 08:36:45;;;;;;;;;;;;;;;13.35;99.72;102267.69;5021508;28;19924;-44
2022/09/22 08:39:11;;;;;;;;;;;;;;;13.46;96.48;102264.84;5019165;28;20373;-41
2022/09/22 08:41:39;;;;;;;;;;;;;;;13.50;97.70;102266.22;5021289;28;19924;-41
2022/09/22 08:44:10;;;;;;;;;;;;;;;13.64;99.00;102270.28;5021616;28;20248;-41
2022/09/22 08:46:42;;;;;;;;;;;;;;;13.82;96.81;102265.00;5020577;28;19917;-40
2022/09/22 08:52:21;;;;;;;;;;;;;;;14.03;95.93;102266.59;5020721;28;19920;-44
2022/09/22 08:54:47;;;;;;;;;;;;;;;14.16;94.16;102265.25;5009255;28;19927;-44
2022/09/22 08:57:31;;;;;;;;;;;;;;;14.31;94.11;102272.81;5019129;28;20040;-42
2022/09/22 09:00:05;;;;;;;;;;;;;;;14.35;91.25;102266.97;5020929;28;19979;-44
2022/09/22 09:02:34;;;;;;;;;;;;;;;14.47;92.77;102269.47;5008465;28;19925;-42
2022/09/22 09:05:03;;;;;;;;;;;;;;;14.64;93.19;102271.34;5019850;28;19921;-42
2022/09/22 09:07:31;;;;;;;;;;;;;;;14.80;91.53;102273.34;5021903;28;19955;-41
2022/09/22 09:10:02;;;;;;;;;;;;;;;14.97;90.82;102279.72;5020713;28;20402;-40
2022/09/22 09:12:59;;;;;;;;;;;;;;;15.19;91.53;102273.00;5021564;28;19917;-42
2022/09/22 09:15:27;;;;;;;;;;;;;;;15.39;89.30;102281.72;5011011;28;19976;-42
2022/09/22 09:17:57;;;;;;;;;;;;;;;15.48;91.26;102279.94;5020222;28;21022;-41
2022/09/22 09:20:35;;;;;;;;;;;;;;;15.63;91.96;102275.66;5019716;28;19985;-43
2022/09/22 09:23:03;;;;;;;;;;;;;;;15.85;86.04;102277.00;5021745;28;20296;-44
2022/09/22 09:25:35;;;;;;;;;;;;;;;15.93;87.54;102275.34;5020681;28;20396;-42
2022/09/22 09:28:05;;;;;;;;;;;;;;;16.00;86.92;102276.38;5021312;28;20280;-43
2022/09/22 09:30:44;;;;;;;;;;;;;;;16.15;88.74;102273.91;5021512;28;19917;-40
2022/09/22 09:33:16;;;;;;;;;;;;;;;16.29;81.68;102275.13;5008844;28;19992;-42
2022/09/22 09:35:49;;;;;;;;;;;;;;;16.34;82.36;102280.88;5019569;28;19924;-46
2022/09/22 09:38:16;;;;;;;;;;;;;;;16.38;84.97;102266.91;5021096;28;20422;-42
2022/09/22 09:40:43;;;;;;;;;;;;;;;16.46;84.01;102271.47;5020646;28;20261;-45
2022/09/22 09:43:09;;;;;;;;;;;;;;;16.50;80.33;102270.13;5018806;28;19917;-42
2022/09/22 09:45:34;;;;;;;;;;;;;;;16.54;80.83;102278.75;5009121;28;19918;-42
2022/09/22 09:48:06;;;;;;;;;;;;;;;16.59;83.25;102266.44;5000489;28;19918;-42
2022/09/22 09:50:31;;;;;;;;;;;;;;;16.83;85.01;102274.72;5008248;28;21039;-42
2022/09/22 09:52:58;;;;;;;;;;;;;;;16.99;80.98;102271.22;5001948;28;20019;-44
2022/09/22 09:55:27;;;;;;;;;;;;;;;17.04;83.04;102263.47;5000755;28;19945;-42
2022/09/22 09:58:01;;;;;;;;;;;;;;;17.28;77.53;102271.56;5000359;28;19961;-42
2022/09/22 10:00:32;;;;;;;;;;;;;;;17.42;75.71;102269.19;4999622;28;20384;-41
2022/09/22 10:03:13;;;;;;;;;;;;;;;17.41;74.32;102272.88;5000302;28;19917;-44
2022/09/22 10:05:38;;;;;;;;;;;;;;;17.26;74.87;102261.91;4999190;28;19927;-40
2022/09/22 10:08:14;;;;;;;;;;;;;;;17.40;76.81;102265.81;5000195;28;19917;-41
2022/09/22 10:10:40;;;;;;;;;;;;;;;17.70;77.95;102264.19;5000808;28;20059;-41
2022/09/22 10:13:05;;;;;;;;;;;;;;;17.94;72.60;102260.63;5000300;28;20321;-41
2022/09/22 10:15:36;;;;;;;;;;;;;;;18.00;73.21;102261.75;4999106;28;20309;-43
2022/09/22 10:18:02;;;;;;;;;;;;;;;18.18;73.69;102253.41;5001412;28;19960;-43
2022/09/22 10:20:30;;;;;;;;;;;;;;;18.24;69.47;102252.69;4998623;28;19913;-44
2022/09/22 10:22:55;;;;;;;;;;;;;;;18.30;69.56;102253.84;4999315;28;19923;-42
2022/09/22 10:25:31;;;;;;;;;;;;;;;18.45;71.06;102249.38;4999811;28;20399;-43
2022/09/22 10:27:59;;;;;;;;;;;;;;;18.47;65.12;102241.91;4999780;28;20156;-43
2022/09/22 10:30:26;;;;;;;;;;;;;;;18.57;66.55;102242.50;4999109;28;19948;-43
2022/09/22 10:33:23;;;;;;;;;;;;;;;18.80;63.57;102249.78;4999678;28;19913;-43
2022/09/22 10:35:54;;;;;;;;;;;;;;;18.83;64.06;102241.31;4993093;28;19917;-43
2022/09/22 10:38:21;;;;;;;;;;;;;;;18.87;64.71;102242.63;5018081;28;20320;-43
2022/09/22 10:40:54;;;;;;;;;;;;;;;18.97;67.87;102235.09;5034743;28;19925;-46
2022/09/22 10:43:28;;;;;;;;;;;;;;;19.16;67.06;102228.34;5018930;28;19913;-46
2022/09/22 10:46:07;;;;;;;;;;;;;;;19.14;62.77;102230.38;5018491;28;19967;-43
2022/09/22 10:48:32;;;;;;;;;;;;;;;19.06;56.95;102226.91;5020117;28;19991;-42
2022/09/22 10:51:03;;;;;;;;;;;;;;;18.96;62.27;102228.03;5017755;28;19917;-43
2022/09/22 10:53:31;;;;;;;;;;;;;;;19.07;59.90;102220.47;5012413;28;19918;-42
2022/09/22 10:56:07;;;;;;;;;;;;;;;19.18;59.45;102225.47;5017357;28;19971;-43
2022/09/22 10:58:57;;;;;;;;;;;;;;;19.22;58.96;102224.06;5016719;28;19916;-43
2022/09/22 11:01:31;;;;;;;;;;;;;;;19.19;59.17;102214.44;5013506;28;19995;-47
2022/09/22 11:04:12;;;;;;;;;;;;;;;19.13;55.80;102215.16;5001989;28;19925;-43
2022/09/22 11:12:23;;;;;;;;;;;;;;;19.13;58.19;102215.16;4999856;28;19959;-44
2022/09/22 11:14:51;;;;;;;;;;;;;;;19.38;59.31;102212.19;5000034;28;19959;-43
2022/09/22 11:17:19;;;;;;;;;;;;;;;19.63;59.10;102207.34;4997651;28;20445;-43
2022/09/22 11:19:45;;;;;;;;;;;;;;;19.67;59.88;102210.50;4998403;28;19964;-42
2022/09/22 11:22:36;;;;;;;;;;;;;;;19.56;51.35;102218.06;5001695;28;20198;-46
2022/09/22 11:25:07;;;;;;;;;;;;;;;19.49;54.76;102208.19;4997985;28;20365;-45
2022/09/22 11:27:35;;;;;;;;;;;;;;;19.68;55.96;102207.59;4999046;28;20000;-42
2022/09/22 11:30:00;;;;;;;;;;;;;;;19.89;54.07;102204.16;4999034;28;19924;-43
2022/09/22 11:32:35;;;;;;;;;;;;;;;19.89;53.45;102201.47;4998462;28;19914;-45
2022/09/22 11:35:06;;;;;;;;;;;;;;;19.96;54.51;102196.13;4998338;28;19917;-45
2022/09/22 11:37:39;;;;;;;;;;;;;;;20.08;55.86;102204.59;5010816;28;20354;-44
2022/09/22 11:40:24;;;;;;;;;;;;;;;20.04;53.39;102200.56;5012895;28;19971;-43
2022/09/22 11:43:08;;;;;;;;;;;;;;;19.94;56.45;102190.88;5014937;28;19932;-43
2022/09/22 11:45:52;;;;;;;;;;;;;;;19.98;55.49;102191.34;5015065;28;20136;-44
2022/09/22 11:48:27;;;;;;;;;;;;;;;19.96;57.56;102181.69;5016435;28;20049;-47
2022/09/22 11:50:59;;;;;;;;;;;;;;;20.07;56.32;102182.03;5016007;28;19943;-46
2022/09/22 11:53:33;;;;;;;;;;;;;;;20.23;56.35;102171.97;5011367;28;20009;-42
2022/09/22 11:56:13;;;;;;;;;;;;;;;20.30;50.49;102172.91;4998931;28;20292;-43
2022/09/22 11:58:39;;;;;;;;;;;;;;;20.29;52.69;102172.03;4999046;28;19920;-45
2022/09/22 12:01:07;;;;;;;;;;;;;;;20.35;50.48;102170.47;4997751;28;19917;-44
2022/09/22 12:03:38;;;;;;;;;;;;;;;20.33;55.19;102169.78;4999206;28;19929;-42
2022/09/22 12:06:06;;;;;;;;;;;;;;;20.58;49.91;102155.81;4997054;28;19927;-44
2022/09/22 12:08:35;;;;;;;;;;;;;;;20.71;48.05;102152.44;4999640;28;20015;-42
2022/09/22 12:11:02;;;;;;;;;;;;;;;20.72;51.12;102151.38;4998617;28;19939;-43
2022/09/22 12:13:29;;;;;;;;;;;;;;;20.78;51.08;102147.88;4999018;28;19913;-43
2022/09/22 12:16:04;;;;;;;;;;;;;;;20.77;48.03;102138.88;4997363;28;19925;-42
2022/09/22 12:18:48;;;;;;;;;;;;;;;20.86;50.57;102135.00;4998898;28;19918;-45
2022/09/22 12:21:37;;;;;;;;;;;;;;;20.87;47.02;102130.38;4996740;28;20152;-45
2022/09/22 12:24:06;;;;;;;;;;;;;;;20.50;49.42;102144.09;4995583;28;19914;-45
2022/09/22 12:26:36;;;;;;;;;;;;;;;20.42;49.91;102132.53;4999454;28;20273;-45
2022/09/22 12:29:07;;;;;;;;;;;;;;;20.64;53.03;102127.94;4998812;28;19913;-43
2022/09/22 12:31:36;;;;;;;;;;;;;;;21.29;52.09;102122.28;5001169;28;20358;-45
2022/09/22 12:34:02;;;;;;;;;;;;;;;22.10;51.09;102119.66;5001359;28;20031;-43
2022/09/22 12:36:30;;;;;;;;;;;;;;;22.89;51.40;102119.88;5003843;28;20398;-43
2022/09/22 12:39:10;;;;;;;;;;;;;;;23.82;50.09;102111.41;5021912;28;19963;-41
2022/09/22 12:42:01;;;;;;;;;;;;;;;24.46;39.77;102113.28;5022498;28;19928;-43
2022/09/22 12:44:29;;;;;;;;;;;;;;;24.47;42.03;102107.59;5021419;28;19933;-43
2022/09/22 12:47:03;;;;;;;;;;;;;;;24.74;36.44;102119.13;5020639;28;20025;-42
2022/09/22 12:49:29;;;;;;;;;;;;;;;24.17;37.25;102101.97;5020796;28;20352;-44
2022/09/22 12:51:54;;;;;;;;;;;;;;;23.65;42.03;102107.50;5020770;28;19921;-44
2022/09/22 12:54:22;;;;;;;;;;;;;;;23.07;41.30;102100.19;5020179;28;20079;-42